Tiempo atmosférico en la estación meteorológica de Polinyà de Xúquer, València/Valencia (12 m.)



Fecha
DESCASC
Temp. máxima en grados centígrados (hora)
DESCASC
Temp. mínima en grados centígrados (hora)
DESCASC
Temp. media en grados centígrados
DESCASC
Racha de viento máxima en m/sg (hora)
DESCASC
Velocidad máxima media en intervalos de 10 minutos(hora)
DESCASC
Precipitaciones diarias en mm
DESCASC
Precipitaciones de 00:00 a 06:00 en mm
DESCASC
Precipitaciones de 06:00 a 12:00 en mm
DESCASC
Precipitaciones de 12:00 a 18:00 en mm
DESCASC
Precipitaciones de 18:00 a 24:00 en mm
DESCASC
15-08-2019 30.8 (17:10) 21.3 (07:00) 26 8.33 (17:40) 4.72 (17:20) 0 0 0 0 0
14-08-2019 31.6 (17:00) 21.1 (00:00) 26.4 10 (17:00) 5.28 (17:00) 0 0 0 0 0
13-08-2019 27.6 (16:20) 20.9 (00:00) 24.3 13.33 (16:10) 4.72 (13:30) 0.2 0.2 0 0 0
12-08-2019 29.1 (14:40) 22.6 (00:00) 25.9 8.33 (14:10) 4.72 (14:50) 0 0 0 0 0
11-08-2019 31.7 (14:40) 25 (00:00) 28.4 10.83 (17:20) 5.83 (16:00) 0 0 0 0 0
10-08-2019 34.6 (11:40) 25.7 (00:00) 30.1 8.33 (15:20) 5 (13:20) 0 0 0 0 0
09-08-2019 41.4 (16:10) 19.4 (00:00) 30.4 8.06 (17:20) 4.17 (17:20) 0 0 0 0 0
08-08-2019 38.2 (14:10) 23.9 (00:00) 31.1 10 (18:20) 5.28 (18:20) 0 0 0 0 0
07-08-2019 38.1 (14:20) 21.8 (00:00) 29.9 10.28 (17:10) 5.28 (17:10) 0 0 0 0 0
06-08-2019 31.6 (19:10) 24 (00:00) 27.8 9.17 (15:20) 5.28 (15:20) 0 0 0 0 0
05-08-2019 29.9 (14:40) 22.5 (00:00) 26.2 8.33 (18:10) 4.44 (17:20) 0 0 0 0 0
04-08-2019 30.3 (16:50) 20.9 (00:00) 25.6 8.33 (18:50) 4.72 (18:50) 0 0 0 0 0
03-08-2019 29.4 (15:00) 21 (00:00) 25.2 10.56 (15:50) 5.83 (15:50) 0 0 0 0 0
02-08-2019 29.7 (14:10) 19.5 (00:00) 24.6 7.5 (15:50) 3.89 (15:40) 0 0 0 0 0
01-08-2019 27.7 (17:10) 20.4 (00:00) 24.1 6.39 (15:10) 3.61 (16:30) 0 0 0 0 0
31-07-2019 28.3 (14:10) 20.5 (00:00) 24.4 9.17 (13:20) 5 (10:30) 0 0 0 0 0
30-07-2019 28.5 (12:20) 20.3 (00:00) 24.4 10 (15:00) 5.28 (15:00) 0 0 0 0 0
29-07-2019 32.1 (16:30) 20.3 (00:00) 26.2 12.78 (13:30) 5 (16:20) 0 0 0 0 0
28-07-2019 30.3 (12:30) 19.1 (00:00) 24.7 11.39 (17:00) 6.11 (16:00) 0 0 0 0 0
27-07-2019 35.3 (16:40) 18.8 (00:00) 27 10.83 (16:40) 3.33 (13:10) 0 0 0 0 0
26-07-2019 30.4 (13:40) 22.4 (00:00) 26.4 8.33 (19:00) 4.72 (18:40) 0 0 0 0 0
25-07-2019 31.5 (13:00) 22.6 (00:00) 27.1 11.67 (15:30) 6.39 (15:10) 0 0 0 0 0
24-07-2019 33.1 (13:30) 20 (00:00) 26.5 9.72 (17:30) 5.56 (18:10) 0 0 0 0 0
23-07-2019 32.8 (14:40) 20.6 (00:00) 26.7 10.83 (17:20) 6.11 (18:30) 0 0 0 0 0
22-07-2019 30.8 (14:30) 21.9 (00:00) 26.3 9.17 (14:40) 4.44 (15:40) 0 0 0 0 0
21-07-2019 30.2 (16:40) 22.5 (00:00) 26.4 7.22 (12:10) 3.61 (12:10) 0 0 0 0 0
20-07-2019 30.1 (14:40) 20.7 (03:20) 25.4 8.06 (16:10) 4.17 (16:10) 0 0 0 0 0
19-07-2019 30.6 (13:40) 21.6 (00:00) 26.1 11.11 (16:20) 5.83 (17:00) 0 0 0 0 0

Gráficas

Temp. máximas Temp. mínimas Temp. medias Precipitaciones Rachas de viento máximas Velocidades máximas media en intervalos de 10 minutos

Datos horarios

Fecha y hora oficial Temperatura (ºC) Velocidad del viento (km/h) Dirección del viento Racha (km/h) Dirección de racha Precipitación (mm) Presión (hPa) Tendencia (hPa) Humedad (%)
2019-08-17 23:00:00 25.3 0 Calma -- -- 0 -- -- 77
2019-08-17 22:00:00 25.4 0 Calma 16 Norte 0 -- -- 77
2019-08-17 21:00:00 26 4 Norte 22 Norte 0 -- -- 75
2019-08-17 20:00:00 27.2 7 Norte 23 Noroeste 0 -- -- 69
2019-08-17 19:00:00 30.1 10 Nordeste 22 Nordeste 0 -- -- 55
2019-08-17 18:00:00 31.8 13 Este 26 Este 0 -- -- 46
2019-08-17 17:00:00 31.3 15 Este 31 Este 0 -- -- 51
2019-08-17 16:00:00 30 17 Este 34 Este 0 -- -- 55
2019-08-17 15:00:00 29.4 17 Este 32 Este 0 -- -- 56
2019-08-17 14:00:00 29.8 15 Este 28 Este 0 -- -- 55
2019-08-17 13:00:00 28.9 12 Este 23 Este 0 -- -- 57
2019-08-17 12:00:00 29.1 8 Este 18 Este 0 -- -- 56
2019-08-17 11:00:00 28.1 4 Este 12 Nordeste 0 -- -- 58
2019-08-17 10:00:00 26.4 0 Calma 7 Sudoeste 0 -- -- 66
2019-08-17 09:00:00 24.4 0 Calma -- -- 0 -- -- 76
2019-08-17 08:00:00 22 0 Calma -- -- 0 -- -- 81
2019-08-17 07:00:00 21.3 0 Calma -- -- 0 -- -- 80
2019-08-17 06:00:00 21.5 0 Calma -- -- 0 -- -- 79
2019-08-17 05:00:00 22.7 0 Calma -- -- 0 -- -- 76
2019-08-17 04:00:00 23.6 0 Calma -- -- 0 -- -- 75
2019-08-17 03:00:00 23.8 0 Calma -- -- 0 -- -- 75
2019-08-17 02:00:00 24 0 Calma -- -- 0 -- -- 74
2019-08-17 01:00:00 24.2 0 Calma -- -- 0 -- -- 74
2019-08-17 00:00:00 24.5 0 Calma -- -- 0 -- -- 73
2019-08-16 23:00:00 24.9 0 Calma 11 Norte 0 -- -- 72
2019-08-16 22:00:00 25.3 0 Calma 16 Norte 0 -- -- 70
2019-08-16 21:00:00 26.2 0 Calma 16 Norte 0 -- -- 67
2019-08-16 20:00:00 28.4 5 Norte 20 Este 0 -- -- 56
2019-08-16 19:00:00 28.6 12 Este 29 Este 0 -- -- 57
2019-08-16 18:00:00 28.9 15 Este 33 Este 0 -- -- 56
2019-08-16 17:00:00 28.6 17 Este 36 Este 0 -- -- 56
2019-08-16 16:00:00 28.5 18 Este 37 Sudeste 0 -- -- 55
2019-08-16 15:00:00 29.2 15 Este 32 Este 0 -- -- 51
2019-08-16 14:00:00 29.2 12 Este 29 Este 0 -- -- 51
2019-08-16 13:00:00 29.5 9 Sudeste 25 Este 0 -- -- 51
2019-08-16 12:00:00 29.1 2 Sudoeste 11 Sudoeste 0 -- -- 48
2019-08-16 11:00:00 28 0 Calma 12 Sudoeste 0 -- -- 58
2019-08-16 10:00:00 26.1 5 Sudoeste 15 Sudoeste 0 -- -- 62
2019-08-16 09:00:00 25.1 6 Sudoeste 13 Sudoeste 0 -- -- 66
2019-08-16 08:00:00 23.9 0 Calma -- -- 0 -- -- 72
2019-08-16 07:00:00 23.3 0 Calma -- -- 0 -- -- 73
2019-08-16 06:00:00 23.4 0 Calma 10 Sudoeste 0 -- -- 73
2019-08-16 05:00:00 23.5 0 Calma 12 Sudoeste 0 -- -- 74
2019-08-16 04:00:00 23.1 0 Calma 10 Sudoeste 0 -- -- 75
2019-08-16 03:00:00 23.7 0 Calma 3 Sudoeste 0 -- -- 74
2019-08-16 02:00:00 23.6 0 Calma 3 Noroeste 0 -- -- 74
2019-08-16 01:00:00 23.7 0 Calma 4 Norte 0 -- -- 74
2019-08-16 00:00:00 24 0 Calma 10 Norte 0 -- -- 72
2019-08-15 23:00:00 24.4 2 Noroeste 13 Norte 0 -- -- 70
2019-08-15 22:00:00 24.9 5 Norte 17 Norte 0 -- -- 70
2019-08-15 21:00:00 25.7 7 Norte 19 Nordeste 0 -- -- 67
2019-08-15 20:00:00 28.2 8 Nordeste 18 Norte 0 -- -- 53
2019-08-15 19:00:00 29.6 13 Este 28 Este 0 -- -- 48
2019-08-15 18:00:00 29.7 17 Este 30 Este 0 -- -- 48
2019-08-15 17:00:00 30.3 14 Este 28 Este 0 -- -- 42
2019-08-15 16:00:00 29.7 12 Este 29 Este 0 -- -- 48
2019-08-15 15:00:00 29.2 15 Este 27 Este 0 -- -- 50
2019-08-15 14:00:00 29.5 13 Este 23 Este 0 -- -- 50
2019-08-15 13:00:00 29.4 10 Nordeste 21 Nordeste 0 -- -- 51
2019-08-15 12:00:00 28.5 9 Nordeste 17 Norte 0 -- -- 51
2019-08-15 11:00:00 28.3 0 Calma -- -- 0 -- -- 51
2019-08-15 10:00:00 27.1 0 Calma -- -- 0 -- -- 56
2019-08-15 09:00:00 24.1 0 Calma -- -- 0 -- -- 64
2019-08-15 08:00:00 21.6 0 Calma -- -- 0 -- -- 76
2019-08-15 07:00:00 21.5 0 Calma -- -- 0 -- -- 78
2019-08-15 06:00:00 22.7 0 Calma -- -- 0 -- -- 79
2019-08-15 05:00:00 21.8 0 Calma -- -- 0 -- -- 77
2019-08-15 04:00:00 23.1 0 Calma -- -- 0 -- -- 75
2019-08-15 03:00:00 23.8 0 Calma -- -- 0 -- -- 74
2019-08-15 02:00:00 23.9 0 Calma -- -- 0 -- -- 74
2019-08-15 01:00:00 24.3 0 Calma -- -- 0 -- -- 74
2019-08-15 00:00:00 25.6 0 Calma 15 Norte 0 -- -- 75
2019-08-14 23:00:00 25.3 0 Calma 14 Norte 0 -- -- 74
2019-08-14 22:00:00 25.7 2 Norte 16 Norte 0 -- -- 73
2019-08-14 21:00:00 27 5 Norte 21 Este 0 -- -- 68
2019-08-14 20:00:00 30.1 9 Este 26 Este 0 -- -- 47
2019-08-14 19:00:00 30.7 14 Este 31 Este 0 -- -- 46
2019-08-14 18:00:00 31.2 18 Este 35 Este 0 -- -- 42
2019-08-14 17:00:00 31.1 19 Este 36 Este 0 -- -- 41
2019-08-14 16:00:00 30.7 16 Este 33 Este 0 -- -- 42
2019-08-14 15:00:00 30 14 Este 28 Este 0 -- -- 43
2019-08-14 14:00:00 29.1 14 Este 29 Este 0 -- -- 44
2019-08-14 13:00:00 28.8 13 Este 22 Este 0 -- -- 46
2019-08-14 12:00:00 29.4 5 Este 16 Sudoeste 0 -- -- 43
2019-08-14 11:00:00 27.5 4 Sudoeste 14 Sudoeste 0 -- -- 44
2019-08-14 10:00:00 25.5 8 Sudoeste 17 Sudoeste 0 -- -- 51
2019-08-14 09:00:00 23.4 8 Sudoeste 15 Sudoeste 0 -- -- 63
2019-08-14 08:00:00 21.8 0 Calma -- -- 0 -- -- 69
2019-08-14 07:00:00 21.4 0 Calma -- -- 0 -- -- 71
2019-08-14 06:00:00 21.6 0 Calma -- -- 0 -- -- 71
2019-08-14 05:00:00 21.8 0 Calma -- -- 0 -- -- 72
2019-08-14 04:00:00 21.7 0 Calma -- -- 0 -- -- 72
2019-08-14 03:00:00 22 0 Calma 11 Sudoeste 0 -- -- 71
2019-08-14 02:00:00 22.3 0 Calma -- -- 0 -- -- 72
2019-08-14 01:00:00 22 0 Calma -- -- 0 -- -- 70
2019-08-14 00:00:00 22.7 0 Calma 6 Este 0 -- -- 66
2019-08-13 23:00:00 23.2 5 Este 16 Este 0 -- -- 65
2019-08-13 22:00:00 23.9 9 Este 16 Este 0 -- -- 60
2019-08-13 21:00:00 24.2 10 Este 19 Este 0 -- -- 58
2019-08-13 20:00:00 25.5 12 Este 26 Sudeste 0 -- -- 53
2019-08-13 19:00:00 26.3 14 Este 28 Este 0 -- -- 50
2019-08-13 18:00:00 26.8 11 Sudeste 28 Este 0 -- -- 49
2019-08-13 17:00:00 26.6 13 Este 48 Este 0 -- -- 50
2019-08-13 16:00:00 26.8 15 Este 29 Este 0 -- -- 51
2019-08-13 15:00:00 26.3 16 Este 28 Este 0 -- -- 53
2019-08-13 14:00:00 25.2 12 Este 30 Este 0 -- -- 54
2019-08-13 13:00:00 26 15 Este 29 Este 0 -- -- 51
2019-08-13 12:00:00 25.5 14 Nordeste 26 Este 0 -- -- 56
2019-08-13 11:00:00 25.4 12 Nordeste 27 Nordeste 0 -- -- 53
2019-08-13 10:00:00 24.6 13 Nordeste 24 Nordeste 0 -- -- 51
2019-08-13 09:00:00 23.4 8 Este 14 Este 0 -- -- 66
2019-08-13 08:00:00 22.3 0 Calma -- -- 0 -- -- 67
2019-08-13 07:00:00 21.3 0 Calma -- -- 0 -- -- 70
2019-08-13 06:00:00 21.3 0 Calma -- -- 0 -- -- 73
2019-08-13 05:00:00 21.3 0 Calma 9 Nordeste 0.2 -- -- 77
2019-08-13 04:00:00 21.2 0 Calma -- -- 0 -- -- 78
2019-08-13 03:00:00 21.4 0 Calma -- -- 0 -- -- 76
2019-08-13 02:00:00 21.8 0 Calma -- -- 0 -- -- 75
2019-08-13 01:00:00 22.2 0 Calma -- -- 0 -- -- 75
2019-08-13 00:00:00 22.6 0 Calma -- -- 0 -- -- 72
2019-08-12 23:00:00 23.4 0 Calma -- -- 0 -- -- 68
2019-08-12 22:00:00 24.3 0 Calma 12 Este 0 -- -- 65
2019-08-12 21:00:00 25.1 7 Este 17 Este 0 -- -- 62
2019-08-12 20:00:00 25.7 11 Este 24 Este 0 -- -- 60
2019-08-12 19:00:00 26.3 14 Este 27 Nordeste 0 -- -- 58
2019-08-12 18:00:00 26.4 13 Este 26 Este 0 -- -- 55
2019-08-12 17:00:00 26.3 14 Este 29 Este 0 -- -- 53
2019-08-12 16:00:00 26.9 15 Este 29 Este 0 -- -- 48
2019-08-12 15:00:00 27.9 16 Este 30 Este 0 -- -- 43
2019-08-12 14:00:00 28.4 14 Este 26 Este 0 -- -- 41
2019-08-12 13:00:00 28.9 12 Nordeste 24 Este 0 -- -- 40
2019-08-12 12:00:00 27.7 13 Nordeste 22 Nordeste 0 -- -- 43
2019-08-12 11:00:00 26.9 12 Nordeste 20 Nordeste 0 -- -- 48
2019-08-12 10:00:00 26.5 6 Nordeste 13 Nordeste 0 -- -- 51
2019-08-12 09:00:00 25.6 0 Calma -- -- 0 -- -- 58
2019-08-12 08:00:00 24.2 0 Calma -- -- 0 -- -- 69
2019-08-12 07:00:00 24 0 Calma -- -- 0 -- -- 61
2019-08-12 06:00:00 24.1 0 Calma 2 Sudoeste 0 -- -- 79
2019-08-12 05:00:00 24.2 0 Calma 8 Sudoeste 0 -- -- 79
2019-08-12 04:00:00 24.6 0 Calma -- -- 0 -- -- 80
2019-08-12 03:00:00 24.4 0 Calma -- -- 0 -- -- 77
2019-08-12 02:00:00 25.5 0 Calma -- -- 0 -- -- 77
2019-08-12 01:00:00 25.8 0 Calma -- -- 0 -- -- 77
2019-08-12 00:00:00 26.2 0 Calma -- -- 0 -- -- 77
2019-08-11 23:00:00 26 0 Calma -- -- 0 -- -- 77
2019-08-11 22:00:00 26.3 0 Calma 13 Noroeste 0 -- -- 77
2019-08-11 21:00:00 27.5 0 Calma 11 Noroeste 0 -- -- 72
2019-08-11 20:00:00 29.4 8 Este 23 Este 0 -- -- 60
2019-08-11 19:00:00 30.5 10 Este 27 Sudeste 0 -- -- 57
2019-08-11 18:00:00 30.5 14 Este 39 Este 0 -- -- 56
2019-08-11 17:00:00 30.6 16 Este 36 Este 0 -- -- 52
2019-08-11 16:00:00 30.5 21 Este 35 Este 0 -- -- 53
2019-08-11 15:00:00 31.1 15 Este 27 Este 0 -- -- 50
2019-08-11 14:00:00 31.1 10 Este 24 Este 0 -- -- 51
2019-08-11 13:00:00 31.2 8 Este 20 Este 0 -- -- 51
2019-08-11 12:00:00 30.2 6 Nordeste 15 Nordeste 0 -- -- 52
2019-08-11 11:00:00 29.4 3 Nordeste 15 Nordeste 0 -- -- 55
2019-08-11 10:00:00 27.7 0 Calma 6 Norte 0 -- -- 64
2019-08-11 09:00:00 26.7 0 Calma -- -- 0 -- -- 74
2019-08-11 08:00:00 25.4 0 Calma 3 Sur 0 -- -- 78
2019-08-11 07:00:00 25.3 0 Calma -- -- 0 -- -- 78
2019-08-11 06:00:00 25.4 0 Calma -- -- 0 -- -- 78
2019-08-11 05:00:00 25.4 0 Calma -- -- 0 -- -- 78
2019-08-11 04:00:00 25.3 0 Calma -- -- 0 -- -- 78
2019-08-11 03:00:00 25.1 0 Calma -- -- 0 -- -- 78
2019-08-11 02:00:00 25.4 0 Calma -- -- 0 -- -- 78
2019-08-11 01:00:00 25.7 0 Calma -- -- 0 -- -- 79
2019-08-11 00:00:00 25.8 0 Calma -- -- 0 -- -- 79
2019-08-10 23:00:00 26.2 0 Calma -- -- 0 -- -- 77
2019-08-10 22:00:00 26.5 0 Calma 8 Nordeste 0 -- -- 77
2019-08-10 21:00:00 27.2 0 Calma 17 Este 0 -- -- 74
2019-08-10 20:00:00 28.3 9 Este 23 Este 0 -- -- 68
2019-08-10 19:00:00 29.1 11 Este 24 Sudeste 0 -- -- 66
2019-08-10 18:00:00 30.5 10 Este 24 Este 0 -- -- 60
2019-08-10 17:00:00 30.3 14 Este 30 Este 0 -- -- 62
2019-08-10 16:00:00 31.3 15 Este 30 Este 0 -- -- 56
2019-08-10 15:00:00 32 15 Este 27 Nordeste 0 -- -- 48
2019-08-10 14:00:00 32.5 14 Nordeste 28 Este 0 -- -- 43
2019-08-10 13:00:00 31.9 17 Este 28 Este 0 -- -- 44
2019-08-10 12:00:00 33.9 11 Este 23 Este 0 -- -- 38
2019-08-10 11:00:00 33.5 0 Calma 16 Sudoeste 0 -- -- 37
2019-08-10 10:00:00 31.5 7 Sudoeste 14 Sudoeste 0 -- -- 39
2019-08-10 09:00:00 29.6 4 Sudoeste 11 Sudoeste 0 -- -- 42
2019-08-10 08:00:00 26.6 0 Calma 13 Sudoeste 0 -- -- 44
2019-08-10 07:00:00 28.4 8 Sudoeste 20 Sudoeste 0 -- -- 38
2019-08-10 06:00:00 29.3 10 Sudoeste 19 Sudoeste 0 -- -- 36
2019-08-10 05:00:00 29.6 9 Sudoeste 20 Sudoeste 0 -- -- 35
2019-08-10 04:00:00 30.4 11 Sudoeste 19 Sudoeste 0 -- -- 35
2019-08-10 03:00:00 29.6 6 Sudoeste 17 Sudoeste 0 -- -- 35
2019-08-10 02:00:00 30.7 8 Sudoeste 14 Sudoeste 0 -- -- 35
2019-08-10 01:00:00 30.8 8 Sudoeste 15 Sudoeste 0 -- -- 35
2019-08-10 00:00:00 30.6 8 Sudoeste 12 Sudoeste 0 -- -- 39
2019-08-09 23:00:00 27.4 0 Calma 3 Sudeste 0 -- -- 54
2019-08-09 22:00:00 29.3 0 Calma 9 Este 0 -- -- 46
2019-08-09 21:00:00 31.9 4 Este 14 Sudeste 0 -- -- 39
2019-08-09 20:00:00 34.3 6 Sudeste 22 Este 0 -- -- 34
2019-08-09 19:00:00 35.3 10 Este 26 Este 0 -- -- 29
2019-08-09 18:00:00 36.3 13 Este 29 Este 0 -- -- 26
2019-08-09 17:00:00 37.2 10 Sudeste 26 Este 0 -- -- 24
2019-08-09 16:00:00 41.1 4 Sudoeste 25 Sudoeste 0 -- -- 18
2019-08-09 15:00:00 39.8 3 Sudoeste 25 Sudoeste 0 -- -- 20
2019-08-09 14:00:00 39.1 2 Oeste 20 Sudoeste 0 -- -- 21
2019-08-09 13:00:00 37.5 3 Sudoeste 19 Sur 0 -- -- 24
2019-08-09 12:00:00 35.3 8 Sudoeste 21 Sudoeste 0 -- -- 25
2019-08-09 11:00:00 33.3 6 Sudoeste 21 Sudoeste 0 -- -- 26
2019-08-09 10:00:00 31.4 11 Sudoeste 20 Sudoeste 0 -- -- 28
2019-08-09 09:00:00 27.8 6 Sudoeste 14 Sudoeste 0 -- -- 38
2019-08-09 08:00:00 23.9 8 Sudoeste 17 Sudoeste 0 -- -- 49
2019-08-09 07:00:00 20.3 0 Calma -- -- 0 -- -- 80
2019-08-09 06:00:00 20.9 0 Calma -- -- 0 -- -- 79
2019-08-09 05:00:00 21.1 0 Calma 0 Calma 0 -- -- 78
2019-08-09 04:00:00 22.1 0 Calma 3 Sudoeste 0 -- -- 78
2019-08-09 03:00:00 23.3 0 Calma -- -- 0 -- -- 75
2019-08-09 02:00:00 24.9 0 Calma -- -- 0 -- -- 74
2019-08-09 01:00:00 25.5 0 Calma -- -- 0 -- -- 73
2019-08-09 00:00:00 26.2 0 Calma -- -- 0 -- -- 72
2019-08-08 23:00:00 26.8 0 Calma 15 Noroeste 0 -- -- 71
2019-08-08 22:00:00 27.5 5 Noroeste 16 Noroeste 0 -- -- 68
2019-08-08 21:00:00 29.3 4 Norte 17 Este 0 -- -- 53
2019-08-08 20:00:00 31.1 10 Este 30 Este 0 -- -- 44
2019-08-08 19:00:00 32.4 15 Este 36 Este 0 -- -- 40
2019-08-08 18:00:00 33.5 18 Este 35 Este 0 -- -- 34
2019-08-08 17:00:00 33.1 18 Este 35 Este 0 -- -- 35
2019-08-08 16:00:00 33.3 18 Este 33 Este 0 -- -- 34
2019-08-08 15:00:00 31.9 17 Este 35 Este 0 -- -- 43
2019-08-08 14:00:00 37.9 2 Oeste 19 Sudoeste 0 -- -- 21
2019-08-08 13:00:00 35.9 6 Sudoeste 19 Sudoeste 0 -- -- 23
2019-08-08 12:00:00 33.7 7 Sudoeste 24 Sur 0 -- -- 26
2019-08-08 11:00:00 32.2 10 Sudoeste 23 Sudoeste 0 -- -- 29
2019-08-08 10:00:00 29.8 12 Sudoeste 26 Sudoeste 0 -- -- 34
2019-08-08 09:00:00 27.6 12 Sudoeste 22 Sudoeste 0 -- -- 38
2019-08-08 08:00:00 25.4 10 Sudoeste 19 Sudoeste 0 -- -- 51
2019-08-08 07:00:00 24.7 5 Sudoeste 21 Sudoeste 0 -- -- 63
2019-08-08 06:00:00 24.3 2 Sudoeste 12 Sudoeste 0 -- -- 76
2019-08-08 05:00:00 24.2 0 Calma 12 Sudoeste 0 -- -- 78
2019-08-08 04:00:00 24.6 2 Sudoeste 10 Sudoeste 0 -- -- 78
2019-08-08 03:00:00 24.8 0 Calma -- -- 0 -- -- 78
2019-08-08 02:00:00 24.9 0 Calma -- -- 0 -- -- 78
2019-08-08 01:00:00 25 0 Calma -- -- 0 -- -- 78
2019-08-08 00:00:00 24.9 0 Calma -- -- 0 -- -- 78
2019-08-07 23:00:00 25.4 0 Calma -- -- 0 -- -- 77
2019-08-07 22:00:00 25.5 0 Calma -- -- 0 -- -- 77
2019-08-07 21:00:00 26.3 0 Calma 17 Nordeste 0 -- -- 73
2019-08-07 20:00:00 28.2 12 Nordeste 19 Este 0 -- -- 62
2019-08-07 19:00:00 28 9 Este 30 Este 0 -- -- 64
2019-08-07 18:00:00 28.7 14 Este 37 Este 0 -- -- 56
2019-08-07 17:00:00 30.1 19 Este 35 Este 0 -- -- 50
2019-08-07 16:00:00 31.5 17 Este 31 Este 0 -- -- 45
2019-08-07 15:00:00 34 10 Sudeste 23 Sudeste 0 -- -- 37
2019-08-07 14:00:00 36.8 0 Calma 17 Sudoeste 0 -- -- 22
2019-08-07 13:00:00 34.6 8 Sudoeste 22 Sudoeste 0 -- -- 23
2019-08-07 12:00:00 33.1 0 Calma 13 Sudoeste 0 -- -- 28
2019-08-07 11:00:00 31.2 0 Calma 9 Noroeste 0 -- -- 38
2019-08-07 10:00:00 27.9 0 Calma 8 Este 0 -- -- 61
2019-08-07 09:00:00 24.3 0 Calma 5 Noroeste 0 -- -- 81
2019-08-07 08:00:00 21.9 0 Calma -- -- 0 -- -- 81
2019-08-07 07:00:00 22.8 0 Calma -- -- 0 -- -- 81
2019-08-07 06:00:00 22.8 0 Calma -- -- 0 -- -- 81
2019-08-07 05:00:00 23.6 0 Calma 6 Sudoeste 0 -- -- 81
2019-08-07 04:00:00 23.8 0 Calma 8 Sudoeste 0 -- -- 80
2019-08-07 03:00:00 24.1 0 Calma 8 Sudoeste 0 -- -- 79
2019-08-07 02:00:00 24.5 0 Calma -- -- 0 -- -- 78
2019-08-07 01:00:00 24.6 0 Calma -- -- 0 -- -- 78
2019-08-07 00:00:00 25.1 0 Calma 5 Nordeste 0 -- -- 77
2019-08-06 23:00:00 25.7 3 Norte 11 Norte 0 -- -- 77
2019-08-06 22:00:00 26.1 4 Norte 12 Nordeste 0 -- -- 77
2019-08-06 21:00:00 26.2 7 Nordeste 21 Norte 0 -- -- 76
2019-08-06 20:00:00 27 8 Norte 22 Norte 0 -- -- 73
2019-08-06 19:00:00 31.4 13 Este 27 Este 0 -- -- 41
2019-08-06 18:00:00 31 14 Este 29 Este 0 -- -- 48
2019-08-06 17:00:00 30.9 16 Este 30 Este 0 -- -- 50
2019-08-06 16:00:00 29.9 18 Este 33 Este 0 -- -- 55
2019-08-06 15:00:00 30.3 17 Este 30 Este 0 -- -- 55
2019-08-06 14:00:00 30.3 13 Este 27 Este 0 -- -- 55
2019-08-06 13:00:00 30.6 12 Este 23 Este 0 -- -- 54
2019-08-06 12:00:00 30.3 8 Este 20 Este 0 -- -- 54
2019-08-06 11:00:00 29.7 4 Este 13 Sudeste 0 -- -- 55
2019-08-06 10:00:00 28.3 2 Sur 9 Sudoeste 0 -- -- 60
2019-08-06 09:00:00 26.3 0 Calma -- -- 0 -- -- 74
2019-08-06 08:00:00 24.5 0 Calma 0 Calma 0 -- -- 78
2019-08-06 07:00:00 24.2 0 Calma -- -- 0 -- -- 76
2019-08-06 06:00:00 25.2 0 Calma -- -- 0 -- -- 75
2019-08-06 05:00:00 25.4 0 Calma -- -- 0 -- -- 75
2019-08-06 04:00:00 25.6 0 Calma -- -- 0 -- -- 75
2019-08-06 03:00:00 25.7 0 Calma -- -- 0 -- -- 75
2019-08-06 02:00:00 25.6 0 Calma 0 Calma 0 -- -- 75
2019-08-06 01:00:00 25.7 0 Calma 6 Norte 0 -- -- 75
2019-08-06 00:00:00 25.5 3 Nordeste 8 Norte 0 -- -- 75
2019-08-05 23:00:00 25.2 5 Nordeste 11 Nordeste 0 -- -- 75
2019-08-05 22:00:00 25.4 6 Nordeste 13 Este 0 -- -- 73
2019-08-05 21:00:00 26.2 7 Este 19 Este 0 -- -- 69
2019-08-05 20:00:00 26.9 11 Este 24 Este 0 -- -- 64
2019-08-05 19:00:00 27.8 11 Este 30 Este 0 -- -- 59
2019-08-05 18:00:00 28.5 15 Este 28 Este 0 -- -- 55
2019-08-05 17:00:00 29.5 12 Este 27 Este 0 -- -- 53
2019-08-05 16:00:00 29.8 13 Este 27 Este 0 -- -- 54
2019-08-05 15:00:00 29.3 10 Este 26 Este 0 -- -- 53
2019-08-05 14:00:00 28.3 10 Nordeste 20 Nordeste 0 -- -- 57
2019-08-05 13:00:00 28.2 9 Nordeste 21 Este 0 -- -- 57
2019-08-05 12:00:00 27.8 11 Nordeste 18 Nordeste 0 -- -- 59
2019-08-05 11:00:00 27 0 Calma -- -- 0 -- -- 60
2019-08-05 10:00:00 26.4 0 Calma -- -- 0 -- -- 63
2019-08-05 09:00:00 25 0 Calma -- -- 0 -- -- 68
2019-08-05 08:00:00 23.1 0 Calma -- -- 0 -- -- 78
2019-08-05 07:00:00 22.8 0 Calma 0 Calma 0 -- -- 78
2019-08-05 06:00:00 23.5 0 Calma -- -- 0 -- -- 78
2019-08-05 05:00:00 23.5 0 Calma -- -- 0 -- -- 80
2019-08-05 04:00:00 23 0 Calma -- -- 0 -- -- 80
2019-08-05 03:00:00 23.4 0 Calma -- -- 0 -- -- 80
2019-08-05 02:00:00 24.1 0 Calma -- -- 0 -- -- 81
2019-08-05 01:00:00 24.3 0 Calma 9 Norte 0 -- -- 81
2019-08-05 00:00:00 24.1 0 Calma 12 Nordeste 0 -- -- 78
2019-08-04 23:00:00 24.4 3 Norte 15 Norte 0 -- -- 75
2019-08-04 22:00:00 24.9 10 Nordeste 22 Nordeste 0 -- -- 72
2019-08-04 21:00:00 25.9 9 Norte 20 Nordeste 0 -- -- 64
2019-08-04 20:00:00 27.5 13 Este 27 Este 0 -- -- 57
2019-08-04 19:00:00 28.2 16 Este 30 Este 0 -- -- 55
2019-08-04 18:00:00 29.1 14 Este 27 Este 0 -- -- 53
2019-08-04 17:00:00 30.1 14 Este 25 Este 0 -- -- 53
2019-08-04 16:00:00 29.8 14 Nordeste 27 Nordeste 0 -- -- 53
2019-08-04 15:00:00 29.7 13 Este 28 Este 0 -- -- 52
2019-08-04 14:00:00 29 14 Este 26 Este 0 -- -- 52
2019-08-04 13:00:00 29.5 10 Este 25 Este 0 -- -- 52
2019-08-04 12:00:00 29.6 6 Este 15 Este 0 -- -- 51
2019-08-04 11:00:00 28.3 4 Este 9 Nordeste 0 -- -- 50
2019-08-04 10:00:00 26.3 0 Calma 14 Sudoeste 0 -- -- 57
2019-08-04 09:00:00 24.2 5 Sudoeste 13 Sudoeste 0 -- -- 63
2019-08-04 08:00:00 22.4 6 Sudoeste 11 Sudoeste 0 -- -- 73
2019-08-04 07:00:00 21.3 0 Calma 11 Sudoeste 0 -- -- 73
2019-08-04 06:00:00 21.8 5 Sudoeste 12 Sudoeste 0 -- -- 72
2019-08-04 05:00:00 22.5 6 Sudoeste 10 Sudoeste 0 -- -- 68
2019-08-04 04:00:00 22.7 5 Sudoeste 13 Sudoeste 0 -- -- 68
2019-08-04 03:00:00 22.6 8 Sudoeste 14 Sudoeste 0 -- -- 70
2019-08-04 02:00:00 23.2 5 Sudoeste 14 Sudoeste 0 -- -- 72
2019-08-04 01:00:00 22.9 0 Calma -- -- 0 -- -- 73
2019-08-04 00:00:00 23.2 0 Calma -- -- 0 -- -- 73
2019-08-03 23:00:00 24.2 0 Calma 8 Noroeste 0 -- -- 69
2019-08-03 22:00:00 24.8 5 Norte 18 Nordeste 0 -- -- 64
2019-08-03 21:00:00 25.7 10 Este 24 Este 0 -- -- 63
2019-08-03 20:00:00 26.7 14 Este 30 Este 0 -- -- 54
2019-08-03 19:00:00 27.6 14 Este 37 Este 0 -- -- 51
2019-08-03 18:00:00 27.6 18 Este 35 Este 0 -- -- 53
2019-08-03 17:00:00 28 21 Este 36 Este 0 -- -- 51
2019-08-03 16:00:00 28.6 19 Este 38 Este 0 -- -- 53
2019-08-03 15:00:00 28.5 16 Este 32 Este 0 -- -- 52
2019-08-03 14:00:00 28.8 13 Este 28 Este 0 -- -- 53
2019-08-03 13:00:00 28.6 9 Este 21 Este 0 -- -- 54
2019-08-03 12:00:00 28.9 6 Este 18 Este 0 -- -- 53
2019-08-03 11:00:00 27 3 Nordeste 8 Nordeste 0 -- -- 58
2019-08-03 10:00:00 25.9 0 Calma 10 Sudoeste 0 -- -- 64
2019-08-03 09:00:00 23.7 0 Calma -- -- 0 -- -- 72
2019-08-03 08:00:00 21.7 0 Calma -- -- 0 -- -- 78
2019-08-03 07:00:00 21.6 0 Calma -- -- 0 -- -- 78
2019-08-03 06:00:00 21.2 0 Calma -- -- 0 -- -- 78
2019-08-03 05:00:00 21.9 0 Calma -- -- 0 -- -- 78
2019-08-03 04:00:00 21.8 0 Calma 9 Sudoeste 0 -- -- 78
2019-08-03 03:00:00 21.1 0 Calma 5 Sur 0 -- -- 78
2019-08-03 02:00:00 21.5 0 Calma -- -- 0 -- -- 78
2019-08-03 01:00:00 21.9 0 Calma -- -- 0 -- -- 75
2019-08-03 00:00:00 22.7 0 Calma -- -- 0 -- -- 75
2019-08-02 23:00:00 23.3 0 Calma 7 Nordeste 0 -- -- 73
2019-08-02 22:00:00 24 5 Nordeste 12 Nordeste 0 -- -- 71
2019-08-02 21:00:00 25.3 8 Nordeste 18 Nordeste 0 -- -- 64
2019-08-02 20:00:00 26.3 10 Este 23 Este 0 -- -- 56
2019-08-02 19:00:00 27.5 11 Este 24 Este 0 -- -- 51
2019-08-02 18:00:00 28.1 14 Este 26 Este 0 -- -- 48
2019-08-02 17:00:00 29 13 Este 27 Este 0 -- -- 46
2019-08-02 16:00:00 29 13 Este 27 Este 0 -- -- 46
2019-08-02 15:00:00 29.3 10 Nordeste 23 Este 0 -- -- 46
2019-08-02 14:00:00 29.4 9 Este 20 Este 0 -- -- 42
2019-08-02 13:00:00 28.9 9 Nordeste 18 Este 0 -- -- 42
2019-08-02 12:00:00 28 6 Nordeste 13 Este 0 -- -- 43
2019-08-02 11:00:00 27.3 3 Nordeste 10 Nordeste 0 -- -- 55
2019-08-02 10:00:00 25.8 0 Calma 13 Sudoeste 0 -- -- 60
2019-08-02 09:00:00 22.9 4 Sudoeste 9 Sudoeste 0 -- -- 69
2019-08-02 08:00:00 21.9 0 Calma -- -- 0 -- -- 75
2019-08-02 07:00:00 20.9 0 Calma 7 Sudoeste 0 -- -- 77
2019-08-02 06:00:00 20.4 0 Calma 6 Sudoeste 0 -- -- 78
2019-08-02 05:00:00 19.7 0 Calma -- -- 0 -- -- 78
2019-08-02 04:00:00 19.9 0 Calma -- -- 0 -- -- 77
2019-08-02 03:00:00 20.4 0 Calma -- -- 0 -- -- 75
2019-08-02 02:00:00 21.2 0 Calma -- -- 0 -- -- 75
2019-08-02 01:00:00 21.7 0 Calma -- -- 0 -- -- 73
2019-08-02 00:00:00 22.5 0 Calma -- -- 0 -- -- 72
2019-08-01 23:00:00 22.9 0 Calma 2 Nordeste 0 -- -- 70
2019-08-01 22:00:00 23.5 2 Nordeste 9 Este 0 -- -- 65
2019-08-01 21:00:00 24.8 6 Este 15 Este 0 -- -- 60
2019-08-01 20:00:00 25.8 10 Este 17 Este 0 -- -- 54
2019-08-01 19:00:00 26.9 10 Este 21 Este 0 -- -- 50
2019-08-01 18:00:00 27.5 8 Este 22 Este 0 -- -- 51
2019-08-01 17:00:00 27.4 10 Este 21 Este 0 -- -- 54
2019-08-01 16:00:00 27.2 10 Este 23 Este 0 -- -- 55
2019-08-01 15:00:00 27 10 Este 21 Este 0 -- -- 57
2019-08-01 14:00:00 26.7 10 Este 22 Este 0 -- -- 56
2019-08-01 13:00:00 26.8 8 Nordeste 16 Nordeste 0 -- -- 54
2019-08-01 12:00:00 27 6 Nordeste 16 Este 0 -- -- 55
2019-08-01 11:00:00 25.3 8 Nordeste 13 Nordeste 0 -- -- 61
2019-08-01 10:00:00 25.3 2 Norte 8 Noroeste 0 -- -- 62
2019-08-01 09:00:00 24 0 Calma -- -- 0 -- -- 68
2019-08-01 08:00:00 22.1 0 Calma -- -- 0 -- -- 76
2019-08-01 07:00:00 21.6 0 Calma -- -- 0 -- -- 77
2019-08-01 06:00:00 21.3 0 Calma 7 Sudoeste 0 -- -- 78
2019-08-01 05:00:00 21.3 0 Calma 5 Sudoeste 0 -- -- 79
2019-08-01 04:00:00 20.6 0 Calma -- -- 0 -- -- 78
2019-08-01 03:00:00 20.8 0 Calma -- -- 0 -- -- 78
2019-08-01 02:00:00 21.2 0 Calma -- -- 0 -- -- 78
2019-08-01 01:00:00 21.5 0 Calma 0 Calma 0 -- -- 77
2019-08-01 00:00:00 21.9 0 Calma -- -- 0 -- -- 75
2019-07-31 23:00:00 22.8 0 Calma -- -- 0 -- -- 73
2019-07-31 22:00:00 23.5 0 Calma 9 Nordeste 0 -- -- 71
2019-07-31 21:00:00 24.6 6 Nordeste 19 Nordeste 0 -- -- 67
2019-07-31 20:00:00 25.5 10 Nordeste 21 Nordeste 0 -- -- 63
2019-07-31 19:00:00 25.8 10 Nordeste 23 Nordeste 0 -- -- 61
2019-07-31 18:00:00 25.7 14 Nordeste 22 Nordeste 0 -- -- 59
2019-07-31 17:00:00 25.8 9 Nordeste 22 Este 0 -- -- 61
2019-07-31 16:00:00 26.4 13 Nordeste 26 Este 0 -- -- 61
2019-07-31 15:00:00 27 13 Este 27 Este 0 -- -- 55
2019-07-31 14:00:00 27.7 12 Este 33 Este 0 -- -- 56
2019-07-31 13:00:00 27.8 15 Este 28 Este 0 -- -- 58
2019-07-31 12:00:00 25.5 12 Nordeste 28 Norte 0 -- -- 66
2019-07-31 11:00:00 25.7 13 Nordeste 30 Nordeste 0 -- -- 53
2019-07-31 10:00:00 25.5 14 Nordeste 30 Nordeste 0 -- -- 53
2019-07-31 09:00:00 24.6 10 Nordeste 23 Nordeste 0 -- -- 76
2019-07-31 08:00:00 22.1 0 Calma 7 Nordeste 0 -- -- 81
2019-07-31 07:00:00 20.8 0 Calma 0 Calma 0 -- -- 81
2019-07-31 06:00:00 21.4 0 Calma -- -- 0 -- -- 81
2019-07-31 05:00:00 21.6 0 Calma -- -- 0 -- -- 80
2019-07-31 04:00:00 22.4 0 Calma -- -- 0 -- -- 80
2019-07-31 03:00:00 21.9 0 Calma -- -- 0 -- -- 78
2019-07-31 02:00:00 22.3 0 Calma -- -- 0 -- -- 78
2019-07-31 01:00:00 22.3 0 Calma -- -- 0 -- -- 77
2019-07-31 00:00:00 23.3 0 Calma -- -- 0 -- -- 77
2019-07-30 23:00:00 23.6 0 Calma 9 Nordeste 0 -- -- 76
2019-07-30 22:00:00 24.1 4 Nordeste 8 Nordeste 0 -- -- 73
2019-07-30 21:00:00 24.9 4 Este 17 Sudeste 0 -- -- 68
2019-07-30 20:00:00 25.8 9 Este 19 Este 0 -- -- 64
2019-07-30 19:00:00 26.7 12 Este 25 Este 0 -- -- 61
2019-07-30 18:00:00 27 12 Este 26 Este 0 -- -- 59
2019-07-30 17:00:00 27.5 15 Este 31 Sudeste 0 -- -- 56
2019-07-30 16:00:00 27.5 17 Este 31 Este 0 -- -- 56
2019-07-30 15:00:00 27.7 19 Nordeste 36 Nordeste 0 -- -- 56
2019-07-30 14:00:00 27 17 Nordeste 31 Nordeste 0 -- -- 58
2019-07-30 13:00:00 27.3 15 Norte 28 Nordeste 0 -- -- 57
2019-07-30 12:00:00 27.9 11 Norte 27 Norte 0 -- -- 53
2019-07-30 11:00:00 26.8 10 Norte 28 Nordeste 0 -- -- 57
2019-07-30 10:00:00 26.4 9 Norte 21 Norte 0 -- -- 67
2019-07-30 09:00:00 24.6 0 Calma -- -- 0 -- -- 72
2019-07-30 08:00:00 22.2 0 Calma 0 Calma 0 -- -- 78
2019-07-30 07:00:00 20.7 0 Calma 18 Sudeste 0 -- -- 80
2019-07-30 06:00:00 20.9 0 Calma -- -- 0 -- -- 78
2019-07-30 05:00:00 21.8 0 Calma -- -- 0 -- -- 75
2019-07-30 04:00:00 22.9 0 Calma 6 Sudoeste 0 -- -- 74
2019-07-30 03:00:00 23.8 5 Sudoeste 7 Sudoeste 0 -- -- 72
2019-07-30 02:00:00 24.2 0 Calma 4 Sudoeste 0 -- -- 68
2019-07-30 01:00:00 25.1 0 Calma 6 Noroeste 0 -- -- 66
2019-07-30 00:00:00 25.4 0 Calma 5 Oeste 0 -- -- 65
2019-07-29 23:00:00 25.9 0 Calma 9 Norte 0 -- -- 62
2019-07-29 22:00:00 26.2 2 Noroeste 22 Este 0 -- -- 61
2019-07-29 21:00:00 27.6 12 Este 22 Este 0 -- -- 56
2019-07-29 20:00:00 29.4 12 Este 24 Este 0 -- -- 53
2019-07-29 19:00:00 31.1 14 Este 27 Este 0 -- -- 46
2019-07-29 18:00:00 31.5 16 Este 33 Sudeste 0 -- -- 43
2019-07-29 17:00:00 31.7 17 Este 40 Sudeste 0 -- -- 40
2019-07-29 16:00:00 31.5 17 Este 34 Este 0 -- -- 40
2019-07-29 15:00:00 31 13 Este 31 Este 0 -- -- 43
2019-07-29 14:00:00 30.3 14 Este 46 Este 0 -- -- 48
2019-07-29 13:00:00 30.1 12 Este 23 Este 0 -- -- 48
2019-07-29 12:00:00 30.2 5 Este 14 Este 0 -- -- 47
2019-07-29 11:00:00 29 2 Este 10 Este 0 -- -- 50
2019-07-29 10:00:00 26.3 4 Sudoeste 13 Sudoeste 0 -- -- 58
2019-07-29 09:00:00 24.3 7 Sudoeste 17 Sudoeste 0 -- -- 65
2019-07-29 08:00:00 22.2 5 Sudoeste 12 Sudoeste 0 -- -- 75
2019-07-29 07:00:00 21.2 4 Sudoeste 8 Oeste 0 -- -- 75
2019-07-29 06:00:00 21.4 4 Sudoeste 12 Sudoeste 0 -- -- 74
2019-07-29 05:00:00 20.8 3 Sudoeste 10 Sudoeste 0 -- -- 73
2019-07-29 04:00:00 22.2 5 Sudoeste 11 Sudoeste 0 -- -- 72
2019-07-29 03:00:00 22.4 6 Sudoeste 9 Sudoeste 0 -- -- 72
2019-07-29 02:00:00 22.3 0 Calma 4 Noroeste 0 -- -- 72
2019-07-29 01:00:00 23 0 Calma 5 Oeste 0 -- -- 72
2019-07-29 00:00:00 24 0 Calma 7 Noroeste 0 -- -- 72
2019-07-28 23:00:00 24.3 0 Calma 8 Norte 0 -- -- 72
2019-07-28 22:00:00 25.2 4 Norte 13 Norte 0 -- -- 67
2019-07-28 21:00:00 27 6 Nordeste 20 Este 0 -- -- 53
2019-07-28 20:00:00 27.7 13 Este 29 Este 0 -- -- 53
2019-07-28 19:00:00 27.5 13 Este 35 Este 0 -- -- 53
2019-07-28 18:00:00 26.9 18 Este 39 Este 0 -- -- 50
2019-07-28 17:00:00 26.9 18 Este 41 Sudeste 0 -- -- 44
2019-07-28 16:00:00 27.1 22 Este 39 Este 0 -- -- 41
2019-07-28 15:00:00 27.3 20 Este 38 Este 0 -- -- 38
2019-07-28 14:00:00 28 15 Este 32 Este 0 -- -- 36
2019-07-28 13:00:00 28.4 13 Este 29 Este 0 -- -- 35
2019-07-28 12:00:00 28.7 3 Sudoeste 10 Sudoeste 0 -- -- 33
2019-07-28 11:00:00 27.5 0 Calma 10 Sudoeste 0 -- -- 35
2019-07-28 10:00:00 26.1 0 Calma 13 Sudoeste 0 -- -- 40
2019-07-28 09:00:00 23.8 7 Sudoeste 15 Sudoeste 0 -- -- 46
2019-07-28 08:00:00 21.3 6 Sudoeste 11 Sudoeste 0 -- -- 57
2019-07-28 07:00:00 19.5 0 Calma 4 Oeste 0 -- -- 60
2019-07-28 06:00:00 20.9 0 Calma -- -- 0 -- -- 60
2019-07-28 05:00:00 21.7 0 Calma 8 Sudoeste 0 -- -- 68
2019-07-28 04:00:00 22 0 Calma 7 Sudoeste 0 -- -- 62
2019-07-28 03:00:00 23.1 0 Calma 7 Sur 0 -- -- 61
2019-07-28 02:00:00 23.9 3 Sudeste 9 Sudeste 0 -- -- 60
2019-07-28 01:00:00 25.2 4 Sudeste 11 Este 0 -- -- 58
2019-07-28 00:00:00 25.7 6 Este 16 Este 0 -- -- 58
2019-07-27 23:00:00 25.8 7 Nordeste 18 Nordeste 0 -- -- 67
2019-07-26 12:00:00 29.3 3 Norte 10 Sudoeste 0 -- -- 50
2019-07-26 11:00:00 27.8 4 Sudoeste 13 Oeste 0 -- -- 53
2019-07-26 10:00:00 26.1 6 Sudoeste 17 Sudoeste 0 -- -- 53
2019-07-26 09:00:00 25.2 7 Sudoeste 15 Sudoeste 0 -- -- 56
2019-07-26 08:00:00 23.2 3 Sudoeste 10 Sudoeste 0 -- -- 65
2019-07-26 07:00:00 22.5 4 Sudoeste 10 Sudoeste 0 -- -- 68
2019-07-26 06:00:00 22.7 4 Sudoeste 12 Sudoeste 0 -- -- 69
2019-07-26 05:00:00 23.1 5 Sudoeste 10 Sudoeste 0 -- -- 67
2019-07-26 04:00:00 23.7 5 Sudoeste 11 Sudoeste 0 -- -- 66
2019-07-26 03:00:00 24.2 6 Sudoeste 13 Sudoeste 0 -- -- 66
2019-07-26 02:00:00 24.3 8 Sudoeste 14 Sudoeste 0 -- -- 66
2019-07-26 01:00:00 24.3 7 Sudoeste 14 Sudoeste 0 -- -- 66
2019-07-26 00:00:00 25.1 6 Sudoeste 18 Sudoeste 0 -- -- 57
2019-07-25 23:00:00 25.3 0 Calma 17 Este 0 -- -- 53
2019-07-25 22:00:00 26.6 8 Este 22 Este 0 -- -- 50
2019-07-25 21:00:00 27.4 11 Este 28 Sudeste 0 -- -- 48
2019-07-25 20:00:00 28.8 18 Este 33 Este 0 -- -- 45
2019-07-25 19:00:00 29.8 19 Este 39 Este 0 -- -- 44
2019-07-25 18:00:00 30.4 20 Este 40 Este 0 -- -- 43
2019-07-25 17:00:00 30.6 20 Este 40 Este 0 -- -- 44
2019-07-25 16:00:00 30.5 18 Este 42 Este 0 -- -- 43
2019-07-25 15:00:00 29.9 22 Este 37 Este 0 -- -- 44
2019-07-25 14:00:00 30.8 15 Este 31 Este 0 -- -- 45
2019-07-25 13:00:00 31.3 9 Este 18 Este 0 -- -- 45
2019-07-25 12:00:00 30.7 3 Nordeste 13 Nordeste 0 -- -- 43
2019-07-25 11:00:00 29.6 0 Calma 9 Sudoeste 0 -- -- 47
2019-07-25 10:00:00 27.1 6 Sudoeste 17 Sudoeste 0 -- -- 50
2019-07-25 09:00:00 25.5 5 Sudoeste 15 Sudoeste 0 -- -- 57
2019-07-25 08:00:00 23.2 5 Sudoeste 16 Sudoeste 0 -- -- 62
2019-07-25 07:00:00 22.7 6 Sudoeste 13 Oeste 0 -- -- 66
2019-07-25 06:00:00 22.9 6 Sudoeste 11 Sudoeste 0 -- -- 69
2019-07-25 05:00:00 22.9 8 Sudoeste 12 Sudoeste 0 -- -- 71
2019-07-25 04:00:00 22.6 4 Sudoeste 9 Sudoeste 0 -- -- 72
2019-07-25 03:00:00 23.2 7 Sudoeste 11 Sudoeste 0 -- -- 71
2019-07-25 02:00:00 23.3 6 Sudoeste 10 Sudoeste 0 -- -- 71
2019-07-25 01:00:00 23.5 0 Calma 4 Sudoeste 0 -- -- 72
2019-07-25 00:00:00 24.3 0 Calma 12 Norte 0 -- -- 70
2019-07-24 23:00:00 25 5 Norte 12 Norte 0 -- -- 68
2019-07-24 22:00:00 25.2 5 Nordeste 17 Este 0 -- -- 64
2019-07-24 21:00:00 27.2 10 Este 19 Este 0 -- -- 51
2019-07-24 20:00:00 28.7 12 Este 29 Sudeste 0 -- -- 45
2019-07-24 19:00:00 29.4 16 Este 33 Este 0 -- -- 44
2019-07-24 18:00:00 29.9 17 Este 35 Este 0 -- -- 44
2019-07-24 17:00:00 31.3 15 Este 29 Este 0 -- -- 38
2019-07-24 16:00:00 31 16 Este 27 Este 0 -- -- 38
2019-07-24 15:00:00 32.1 13 Este 26 Este 0 -- -- 35
2019-07-24 14:00:00 32.5 12 Este 21 Nordeste 0 -- -- 32
2019-07-24 13:00:00 32.5 8 Nordeste 17 Nordeste 0 -- -- 31
2019-07-24 12:00:00 31.5 4 Nordeste 12 Norte 0 -- -- 32
2019-07-24 11:00:00 30.1 2 Nordeste 8 Nordeste 0 -- -- 34
2019-07-24 10:00:00 27.8 3 Sudoeste 9 Sudoeste 0 -- -- 41
2019-07-24 09:00:00 25.6 5 Sudoeste 10 Sudoeste 0 -- -- 51
2019-07-24 08:00:00 23.9 0 Calma 9 Sudoeste 0 -- -- 60
2019-07-24 07:00:00 21.2 2 Sudoeste 11 Sudoeste 0 -- -- 63
2019-07-24 06:00:00 22.1 6 Sudoeste 11 Sudoeste 0 -- -- 65
2019-07-24 05:00:00 21 0 Calma 8 Sudoeste 0 -- -- 70
2019-07-24 04:00:00 23 4 Sudoeste 12 Sudoeste 0 -- -- 66
2019-07-24 03:00:00 21.4 2 Sudoeste 13 Sudoeste 0 -- -- 72
2019-07-24 02:00:00 23.4 6 Sudoeste 13 Sudoeste 0 -- -- 63
2019-07-24 01:00:00 23 8 Sudoeste 12 Sudoeste 0 -- -- 66
2019-07-24 00:00:00 23.4 0 Calma 6 Sudoeste 0 -- -- 70
2019-07-23 23:00:00 23.7 5 Nordeste 8 Nordeste 0 -- -- 70
2019-07-23 22:00:00 24.9 5 Nordeste 11 Este 0 -- -- 63
2019-07-23 21:00:00 26.5 6 Este 23 Sudeste 0 -- -- 56
2019-07-23 20:00:00 27.8 15 Este 32 Este 0 -- -- 50
2019-07-23 19:00:00 29.1 19 Este 35 Este 0 -- -- 43
2019-07-23 18:00:00 30 19 Este 39 Este 0 -- -- 42
2019-07-23 17:00:00 31 18 Este 33 Este 0 -- -- 32
2019-07-23 16:00:00 32.1 12 Este 28 Sudeste 0 -- -- 28
2019-07-23 15:00:00 32.3 11 Este 27 Este 0 -- -- 28
2019-07-23 14:00:00 32.3 10 Este 21 Este 0 -- -- 32
2019-07-23 13:00:00 31.8 5 Este 18 Nordeste 0 -- -- 37
2019-07-23 12:00:00 30.9 6 Este 14 Este 0 -- -- 36
2019-07-23 11:00:00 29.5 3 Nordeste 10 Este 0 -- -- 44
2019-07-23 10:00:00 26.5 6 Sudoeste 15 Sudoeste 0 -- -- 53
2019-07-23 09:00:00 24.9 6 Sudoeste 14 Sudoeste 0 -- -- 56
2019-07-23 08:00:00 22.5 5 Sudoeste 14 Sudoeste 0 -- -- 63
2019-07-23 07:00:00 21.7 6 Sudoeste 13 Sudoeste 0 -- -- 66
2019-07-23 06:00:00 21.6 4 Sudoeste 9 Sudoeste 0 -- -- 70
2019-07-23 05:00:00 21.8 5 Sudoeste 12 Sudoeste 0 -- -- 72
2019-07-23 04:00:00 21.9 3 Sudoeste 10 Sudoeste 0 -- -- 72
2019-07-23 03:00:00 21.2 3 Sudoeste 9 Sur 0 -- -- 74
2019-07-23 02:00:00 22.5 0 Calma 5 Sudoeste 0 -- -- 71
2019-07-23 01:00:00 22.1 0 Calma -- -- 0 -- -- 73
2019-07-23 00:00:00 22.7 0 Calma -- -- 0 -- -- 72
2019-07-22 23:00:00 23.3 0 Calma -- -- 0 -- -- 67
2019-07-22 22:00:00 24.7 0 Calma 10 Este 0 -- -- 61
2019-07-22 21:00:00 26.4 6 Este 15 Este 0 -- -- 53
2019-07-22 20:00:00 27.9 9 Este 18 Nordeste 0 -- -- 48
2019-07-22 19:00:00 29.1 11 Nordeste 20 Este 0 -- -- 44
2019-07-22 18:00:00 29.4 10 Este 25 Este 0 -- -- 43
2019-07-22 17:00:00 28.9 14 Este 27 Este 0 -- -- 47
2019-07-22 16:00:00 29.4 15 Nordeste 32 Este 0 -- -- 46
2019-07-22 15:00:00 30.2 15 Este 33 Nordeste 0 -- -- 42
2019-07-22 14:00:00 29.9 11 Este 26 Este 0 -- -- 43
2019-07-22 13:00:00 29 9 Nordeste 19 Nordeste 0 -- -- 51
2019-07-22 12:00:00 28.6 5 Nordeste 14 Nordeste 0 -- -- 53
2019-07-22 11:00:00 28.6 3 Noroeste 10 Nordeste 0 -- -- 56
2019-07-22 10:00:00 26.9 0 Calma 6 Sudoeste 0 -- -- 64
2019-07-22 09:00:00 24.7 0 Calma -- -- 0 -- -- 70
2019-07-22 08:00:00 23 0 Calma -- -- 0 -- -- 78
2019-07-22 07:00:00 22.4 0 Calma -- -- 0 -- -- 78
2019-07-22 06:00:00 22.6 0 Calma -- -- 0 -- -- 79
2019-07-22 05:00:00 22.8 0 Calma 6 Sudoeste 0 -- -- 79
2019-07-22 04:00:00 22.3 0 Calma -- -- 0 -- -- 78
2019-07-22 03:00:00 22.4 0 Calma -- -- 0 -- -- 77
2019-07-22 02:00:00 22.5 0 Calma -- -- 0 -- -- 77
2019-07-22 01:00:00 23.3 0 Calma -- -- 0 -- -- 76
2019-07-22 00:00:00 23.7 0 Calma -- -- 0 -- -- 75
2019-07-21 23:00:00 24.1 0 Calma 5 Este 0 -- -- 73
2019-07-21 22:00:00 25.1 0 Calma 13 Este 0 -- -- 69
2019-07-21 21:00:00 26.3 9 Este 16 Este 0 -- -- 62
2019-07-21 20:00:00 27.7 9 Nordeste 17 Este 0 -- -- 55
2019-07-21 19:00:00 28.7 11 Este 18 Nordeste 0 -- -- 53
2019-07-21 18:00:00 29 10 Este 23 Este 0 -- -- 56
2019-07-21 17:00:00 29.5 12 Nordeste 23 Este 0 -- -- 51
2019-07-21 16:00:00 29.6 10 Nordeste 22 Nordeste 0 -- -- 46
2019-07-21 15:00:00 29.2 10 Nordeste 23 Este 0 -- -- 53
2019-07-21 14:00:00 29.1 11 Nordeste 24 Este 0 -- -- 55
2019-07-21 13:00:00 28.1 10 Nordeste 26 Norte 0 -- -- 57
2019-07-21 12:00:00 28.2 11 Nordeste 23 Nordeste 0 -- -- 60
2019-07-21 11:00:00 27.2 8 Nordeste 17 Nordeste 0 -- -- 63
2019-07-21 10:00:00 26.7 0 Calma 8 Sudoeste 0 -- -- 66
2019-07-21 09:00:00 25.4 0 Calma 0 Calma 0 -- -- 73
2019-07-21 08:00:00 23.8 0 Calma 6 Sudoeste 0 -- -- 78
2019-07-21 07:00:00 22.9 0 Calma -- -- 0 -- -- 79
2019-07-21 06:00:00 23 0 Calma 0 Calma 0 -- -- 78
2019-07-21 05:00:00 23.2 0 Calma 4 Sudoeste 0 -- -- 78
2019-07-21 04:00:00 22.9 0 Calma -- -- 0 -- -- 79
2019-07-21 03:00:00 22.6 0 Calma -- -- 0 -- -- 78
2019-07-21 02:00:00 23.1 0 Calma -- -- 0 -- -- 78
2019-07-21 01:00:00 24 0 Calma -- -- 0 -- -- 78
2019-07-21 00:00:00 24 0 Calma -- -- 0 -- -- 76
2019-07-20 23:00:00 25.1 0 Calma -- -- 0 -- -- 73
2019-07-20 22:00:00 25.5 0 Calma 9 Este 0 -- -- 72
2019-07-20 21:00:00 26 6 Este 15 Este 0 -- -- 68
2019-07-20 20:00:00 26.8 10 Este 22 Este 0 -- -- 64
2019-07-20 19:00:00 27.5 13 Nordeste 25 Este 0 -- -- 60
2019-07-20 18:00:00 28.1 14 Nordeste 26 Este 0 -- -- 57
2019-07-20 17:00:00 28.7 12 Este 29 Este 0 -- -- 55
2019-07-20 16:00:00 28.7 13 Este 28 Este 0 -- -- 53
2019-07-20 15:00:00 29.4 12 Sudeste 28 Sudeste 0 -- -- 43
2019-07-20 14:00:00 29.7 10 Sudeste 27 Este 0 -- -- 44
2019-07-20 13:00:00 29.9 7 Sudeste 20 Este 0 -- -- 44
2019-07-20 12:00:00 28.9 7 Este 14 Sudeste 0 -- -- 50
2019-07-20 11:00:00 27.7 0 Calma -- -- 0 -- -- 55
2019-07-20 10:00:00 25.5 4 Sudoeste 11 Sudoeste 0 -- -- 65
2019-07-20 09:00:00 24.1 3 Sudoeste 10 Sudoeste 0 -- -- 72
2019-07-20 08:00:00 22.2 0 Calma -- -- 0 -- -- 80
2019-07-20 07:00:00 21 0 Calma -- -- 0 -- -- 80
2019-07-20 06:00:00 21 0 Calma -- -- 0 -- -- 80
2019-07-20 05:00:00 20.9 0 Calma -- -- 0 -- -- 78
2019-07-20 04:00:00 21.4 0 Calma 9 Sudoeste 0 -- -- 78
2019-07-20 03:00:00 21.3 0 Calma 2 Sur 0 -- -- 78
2019-07-20 02:00:00 21.7 0 Calma 5 Sudeste 0 -- -- 77
2019-07-20 01:00:00 22.3 3 Nordeste 6 Nordeste 0 -- -- 77
2019-07-20 00:00:00 22.9 4 Nordeste 8 Norte 0 -- -- 76
2019-07-19 23:00:00 23.3 5 Nordeste 10 Nordeste 0 -- -- 72
2019-07-19 22:00:00 24.3 6 Nordeste 15 Este 0 -- -- 68
2019-07-19 21:00:00 25.6 10 Este 24 Este 0 -- -- 62
2019-07-19 20:00:00 26.5 14 Este 32 Este 0 -- -- 61
2019-07-19 19:00:00 27.2 18 Este 35 Este 0 -- -- 57
2019-07-19 18:00:00 27.9 17 Este 39 Este 0 -- -- 55
2019-07-19 17:00:00 28.2 21 Este 40 Este 0 -- -- 50
2019-07-19 16:00:00 28.6 18 Este 36 Este 0 -- -- 46
2019-07-19 15:00:00 28.8 12 Este 30 Este 0 -- -- 51
2019-07-19 14:00:00 29.1 13 Este 27 Este 0 -- -- 51
2019-07-19 13:00:00 29.8 4 Norte 14 Nordeste 0 -- -- 49
2019-07-19 12:00:00 28.2 6 Nordeste 13 Nordeste 0 -- -- 53
2019-07-19 11:00:00 28.1 3 Norte 11 Norte 0 -- -- 54
2019-07-19 10:00:00 26.3 2 Sudoeste 15 Sudoeste 0 -- -- 57
2019-07-19 09:00:00 24 6 Sudoeste 12 Sudoeste 0 -- -- 62
2019-07-19 08:00:00 22.5 5 Sudoeste 13 Sudoeste 0 -- -- 65
2019-07-19 07:00:00 21.6 4 Sudoeste 9 Sudoeste 0 -- -- 71
2019-07-19 06:00:00 22 4 Sudoeste 8 Oeste 0 -- -- 71
2019-07-19 05:00:00 22.3 3 Sudoeste 10 Sudoeste 0 -- -- 69
2019-07-19 04:00:00 22.5 7 Sudoeste 12 Sudoeste 0 -- -- 69
2019-07-19 03:00:00 22.7 7 Sudoeste 12 Sudoeste 0 -- -- 74
2019-07-19 02:00:00 22.7 0 Calma 5 Noroeste 0 -- -- 75
2019-07-19 01:00:00 23 2 Noroeste 10 Norte 0 -- -- 75
2019-07-19 00:00:00 23.4 3 Noroeste 9 Norte 0 -- -- 73